createdAt,value
2018-11-06T00:01:51.928Z,7.60
2018-11-06T00:04:24.627Z,7.60
2018-11-06T00:06:53.074Z,7.60
2018-11-06T00:09:21.669Z,7.50
2018-11-06T00:11:50.142Z,7.50
2018-11-06T00:14:18.549Z,7.50
2018-11-06T00:16:46.978Z,7.40
2018-11-06T00:19:15.476Z,7.40
2018-11-06T00:21:44.050Z,7.30
2018-11-06T00:24:12.458Z,7.20
2018-11-06T00:26:40.934Z,7.20
2018-11-06T00:29:09.996Z,7.20
2018-11-06T00:31:39.076Z,7.30
2018-11-06T00:34:07.546Z,7.20
2018-11-06T00:36:35.995Z,7.20
2018-11-06T00:39:05.556Z,7.20
2018-11-06T00:41:34.082Z,7.20
2018-11-06T00:44:02.792Z,7.10
2018-11-06T00:46:31.220Z,7.00
2018-11-06T00:48:59.946Z,7.00
2018-11-06T00:51:28.480Z,7.00
2018-11-06T00:53:56.966Z,7.00
2018-11-06T00:56:25.476Z,6.90
2018-11-06T00:58:54.276Z,6.80
2018-11-06T01:01:22.874Z,6.80
2018-11-06T01:03:56.726Z,6.70
2018-11-06T01:06:25.166Z,6.70
2018-11-06T01:08:53.608Z,6.70
2018-11-06T01:11:22.105Z,6.70
2018-11-06T01:13:50.690Z,6.60
2018-11-06T01:16:19.140Z,6.70
2018-11-06T01:18:47.648Z,6.60
2018-11-06T01:21:16.086Z,6.50
2018-11-06T01:23:44.607Z,6.50
2018-11-06T01:26:13.088Z,6.50
2018-11-06T01:28:41.550Z,6.50
2018-11-06T01:31:09.984Z,6.50
2018-11-06T01:33:38.402Z,6.50
2018-11-06T01:36:06.951Z,6.40
2018-11-06T01:38:35.471Z,6.30
2018-11-06T01:41:04.015Z,6.30
2018-11-06T01:43:32.459Z,6.30
2018-11-06T01:46:00.942Z,6.30
2018-11-06T01:48:29.433Z,6.30
2018-11-06T01:50:58.018Z,6.30
2018-11-06T01:53:26.651Z,6.20
2018-11-06T01:55:55.177Z,6.20
2018-11-06T01:58:23.802Z,6.30
2018-11-06T02:00:53.097Z,6.30
2018-11-06T02:03:21.539Z,6.30
2018-11-06T02:05:49.964Z,6.20
2018-11-06T02:08:18.388Z,6.10
2018-11-06T02:10:46.805Z,6.20
2018-11-06T02:13:15.405Z,6.20
2018-11-06T02:15:43.880Z,6.20
2018-11-06T02:18:12.347Z,6.20
2018-11-06T02:20:48.093Z,6.10
2018-11-06T02:23:16.689Z,6.10
2018-11-06T02:25:45.201Z,6.10
2018-11-06T02:28:14.565Z,6.00
2018-11-06T02:30:43.023Z,6.00
2018-11-06T02:33:11.447Z,5.90
2018-11-06T02:35:40.033Z,5.90
2018-11-06T02:38:08.461Z,5.80
2018-11-06T02:40:38.559Z,5.70
2018-11-06T02:43:06.979Z,5.70
2018-11-06T02:45:35.430Z,5.60
2018-11-06T02:48:03.954Z,5.50
2018-11-06T02:50:32.407Z,5.40
2018-11-06T02:53:00.817Z,5.40
2018-11-06T02:55:29.365Z,5.40
2018-11-06T02:57:57.800Z,5.40
2018-11-06T03:00:26.229Z,5.30
2018-11-06T03:02:54.639Z,5.30
2018-11-06T03:05:23.091Z,5.20
2018-11-06T03:07:51.562Z,5.10
2018-11-06T03:10:20.045Z,5.10
2018-11-06T03:12:57.987Z,5.10
2018-11-06T03:15:26.400Z,5.10
2018-11-06T03:17:54.896Z,5.00
2018-11-06T03:20:23.321Z,5.10
2018-11-06T03:22:51.887Z,5.10
2018-11-06T03:25:20.375Z,5.10
2018-11-06T03:27:48.938Z,4.90
2018-11-06T03:30:17.534Z,4.80
2018-11-06T03:32:46.001Z,4.80
2018-11-06T03:35:15.151Z,4.80
2018-11-06T03:37:43.613Z,4.80
2018-11-06T03:40:14.369Z,4.80
2018-11-06T03:42:43.449Z,4.80
2018-11-06T03:45:12.787Z,4.70
2018-11-06T03:47:41.224Z,4.80
2018-11-06T03:50:11.285Z,4.70
2018-11-06T03:52:39.860Z,4.70
2018-11-06T03:55:08.663Z,4.70
2018-11-06T03:57:37.234Z,4.60
2018-11-06T04:00:08.053Z,4.60
2018-11-06T04:02:36.540Z,4.60
2018-11-06T04:05:05.990Z,4.50
2018-11-06T04:07:34.521Z,4.50
2018-11-06T04:10:03.432Z,4.50
2018-11-06T04:12:31.848Z,4.50
2018-11-06T04:15:00.290Z,4.60
2018-11-06T04:17:28.899Z,4.50
2018-11-06T04:19:57.472Z,4.40
2018-11-06T04:22:28.070Z,4.30
2018-11-06T04:24:56.498Z,4.40
2018-11-06T04:27:25.030Z,4.40
2018-11-06T04:29:53.446Z,4.30
2018-11-06T04:32:21.882Z,4.30
2018-11-06T04:34:53.443Z,4.30
2018-11-06T04:37:21.888Z,4.20
2018-11-06T04:39:50.314Z,4.20
2018-11-06T04:42:19.039Z,4.10
2018-11-06T04:44:47.581Z,4.10
2018-11-06T04:47:16.023Z,4.10
2018-11-06T04:49:44.473Z,4.00
2018-11-06T04:52:12.985Z,4.10
2018-11-06T04:54:41.435Z,4.00
2018-11-06T04:57:09.863Z,4.10
2018-11-06T04:59:38.375Z,4.20
2018-11-06T05:02:06.889Z,4.20
2018-11-06T05:04:35.438Z,4.20
2018-11-06T05:07:04.001Z,4.20
2018-11-06T05:09:32.357Z,4.30
2018-11-06T05:12:00.809Z,4.30
2018-11-06T05:14:29.247Z,4.40
2018-11-06T05:16:57.707Z,4.40
2018-11-06T05:19:26.219Z,4.30
2018-11-06T05:21:55.451Z,4.30
2018-11-06T05:24:24.003Z,4.20
2018-11-06T05:26:55.521Z,4.20
2018-11-06T05:29:24.037Z,4.20
2018-11-06T05:31:52.495Z,4.10
2018-11-06T05:34:20.940Z,4.20
2018-11-06T05:36:49.427Z,4.10
2018-11-06T05:39:17.898Z,4.00
2018-11-06T05:41:46.445Z,4.00
2018-11-06T05:44:14.917Z,4.10
2018-11-06T05:46:43.435Z,4.10
2018-11-06T05:49:11.966Z,4.20
2018-11-06T05:51:41.061Z,4.20
2018-11-06T05:54:09.567Z,4.20
2018-11-06T05:56:38.078Z,4.10
2018-11-06T05:59:06.543Z,4.20
2018-11-06T06:01:34.973Z,4.20
2018-11-06T06:04:14.273Z,4.20
2018-11-06T06:06:42.703Z,4.30
2018-11-06T06:09:11.177Z,4.30
2018-11-06T06:11:39.597Z,4.50
2018-11-06T06:14:08.045Z,5.00
2018-11-06T06:16:36.526Z,4.90
2018-11-06T06:27:43.253Z,4.90
2018-11-06T06:30:14.481Z,4.80
2018-11-06T06:32:43.021Z,4.80
2018-11-06T06:35:11.610Z,4.80
2018-11-06T06:37:40.143Z,4.90
2018-11-06T06:40:11.133Z,4.90
2018-11-06T06:42:39.553Z,4.90
2018-11-06T06:45:10.164Z,5.10
2018-11-06T06:47:38.641Z,5.30
2018-11-06T06:50:09.169Z,5.30
2018-11-06T06:52:38.373Z,5.30
2018-11-06T06:55:08.205Z,5.40
2018-11-06T06:57:37.624Z,5.50
2018-11-06T07:00:08.525Z,5.60
2018-11-06T07:02:37.157Z,5.80
2018-11-06T07:05:07.234Z,5.90
2018-11-06T07:07:36.056Z,6.00
2018-11-06T07:10:05.101Z,6.10
2018-11-06T07:12:33.829Z,6.20
2018-11-06T07:15:02.338Z,6.30
2018-11-06T07:17:30.866Z,6.50
2018-11-06T07:19:59.335Z,6.70
2018-11-06T07:22:27.767Z,6.80
2018-11-06T07:24:56.312Z,7.10
2018-11-06T07:27:24.740Z,7.50
2018-11-06T07:29:53.213Z,8.30
2018-11-06T07:32:21.735Z,8.80
2018-11-06T07:34:50.325Z,9.40
2018-11-06T07:37:18.690Z,10.10
2018-11-06T07:39:47.135Z,11.20
2018-11-06T07:42:15.685Z,12.40
2018-11-06T07:44:44.216Z,13.40
2018-11-06T07:47:12.731Z,14.80
2018-11-06T07:49:41.347Z,16.30
2018-11-06T07:52:09.856Z,17.30
2018-11-06T07:54:38.394Z,18.40
2018-11-06T07:57:07.011Z,19.30
2018-11-06T07:59:35.472Z,20.30
2018-11-06T08:02:03.898Z,21.30
2018-11-06T08:04:32.326Z,22.20
2018-11-06T08:07:00.796Z,23.10
2018-11-06T08:09:29.295Z,23.60
2018-11-06T08:11:57.854Z,24.20
2018-11-06T08:14:27.488Z,24.10
2018-11-06T08:16:56.016Z,24.10
2018-11-06T08:19:24.494Z,24.40
2018-11-06T08:21:52.934Z,24.30
2018-11-06T08:24:21.342Z,24.90
2018-11-06T08:26:49.890Z,24.60
2018-11-06T08:29:18.326Z,24.50
2018-11-06T08:31:47.104Z,24.70
2018-11-06T08:34:15.213Z,25.50
2018-11-06T08:36:43.759Z,25.40
2018-11-06T08:39:12.182Z,25.30
2018-11-06T08:41:41.192Z,25.80
2018-11-06T08:44:09.659Z,26.20
2018-11-06T08:46:41.123Z,26.40
2018-11-06T08:49:09.541Z,26.80
2018-11-06T08:51:38.084Z,26.80
2018-11-06T08:54:06.582Z,26.60
2018-11-06T08:56:35.355Z,27.20
2018-11-06T08:59:03.825Z,27.30
2018-11-06T09:01:32.269Z,27.40
2018-11-06T09:04:00.699Z,27.90
2018-11-06T09:06:29.130Z,27.60
2018-11-06T09:08:57.709Z,28.30
2018-11-06T09:11:26.134Z,28.70
2018-11-06T09:13:54.561Z,28.60
2018-11-06T09:16:22.982Z,28.60
2018-11-06T09:18:51.484Z,29.20
2018-11-06T09:21:19.906Z,29.50
2018-11-06T09:23:48.354Z,29.80
2018-11-06T09:26:16.790Z,30.10
2018-11-06T09:28:45.221Z,30.20
2018-11-06T09:31:13.639Z,30.10
2018-11-06T09:33:42.172Z,30.50
2018-11-06T09:36:10.647Z,30.50
2018-11-06T09:38:39.107Z,30.60
2018-11-06T09:41:07.542Z,31.00
2018-11-06T09:43:36.198Z,30.80
2018-11-06T09:46:04.686Z,30.60
2018-11-06T09:48:33.122Z,30.60
2018-11-06T09:51:02.105Z,30.90
2018-11-06T09:53:30.543Z,31.00
2018-11-06T09:55:58.973Z,31.20
2018-11-06T09:58:27.500Z,31.20
2018-11-06T10:00:56.139Z,30.80
2018-11-06T10:03:24.737Z,30.10
2018-11-06T10:05:53.175Z,29.70
2018-11-06T10:08:21.620Z,29.80
2018-11-06T10:10:50.069Z,30.20
2018-11-06T10:13:18.531Z,30.70
2018-11-06T10:15:47.012Z,30.20
2018-11-06T10:18:15.481Z,30.40
2018-11-06T10:20:43.967Z,30.60
2018-11-06T10:23:12.431Z,30.60
2018-11-06T10:25:40.905Z,30.80
2018-11-06T10:28:09.341Z,31.20
2018-11-06T10:30:37.877Z,31.80
2018-11-06T10:33:06.353Z,32.00
2018-11-06T10:35:34.775Z,32.10
2018-11-06T10:38:03.226Z,32.50
2018-11-06T10:40:31.676Z,32.20
2018-11-06T10:43:00.120Z,32.00
2018-11-06T10:45:28.551Z,31.60
2018-11-06T10:47:57.009Z,31.70
2018-11-06T10:50:25.437Z,31.90
2018-11-06T10:52:53.903Z,31.80
2018-11-06T10:55:22.357Z,32.30
2018-11-06T10:57:50.819Z,33.00
2018-11-06T11:01:24.062Z,32.40
2018-11-06T11:03:57.964Z,32.50
2018-11-06T11:06:26.491Z,32.90
2018-11-06T11:08:54.965Z,32.10
2018-11-06T11:11:23.429Z,31.70
2018-11-06T11:13:51.895Z,30.90
2018-11-06T11:16:20.318Z,30.30
2018-11-06T11:18:48.733Z,29.80
2018-11-06T11:21:17.158Z,29.50
2018-11-06T11:23:45.533Z,29.00
2018-11-06T11:26:13.972Z,28.10
2018-11-06T11:28:42.411Z,27.60
2018-11-06T11:31:10.874Z,27.40
2018-11-06T11:33:45.973Z,26.70
2018-11-06T11:36:14.421Z,26.00
2018-11-06T11:38:42.833Z,25.80
2018-11-06T11:41:11.234Z,26.00
2018-11-06T11:43:39.902Z,26.20
2018-11-06T11:46:08.370Z,26.30
2018-11-06T11:48:36.817Z,26.10
2018-11-06T11:51:05.832Z,26.70
2018-11-06T11:53:34.299Z,27.40
2018-11-06T11:56:02.784Z,27.30
2018-11-06T11:58:31.624Z,26.60
2018-11-06T12:01:00.058Z,26.30
2018-11-06T12:03:28.513Z,25.90
2018-11-06T12:05:56.926Z,25.80
2018-11-06T12:08:25.354Z,25.80
2018-11-06T12:10:53.806Z,26.20
2018-11-06T12:13:22.262Z,26.50
2018-11-06T12:15:50.676Z,26.90
2018-11-06T12:18:19.203Z,26.70
2018-11-06T12:20:47.696Z,26.50
2018-11-06T12:23:16.152Z,26.50
2018-11-06T12:25:44.888Z,26.40
2018-11-06T12:28:13.090Z,26.70
2018-11-06T12:30:41.589Z,26.80
2018-11-06T12:33:10.028Z,27.30
2018-11-06T12:35:38.513Z,27.60
2018-11-06T12:38:08.240Z,27.70
2018-11-06T12:40:36.692Z,27.70
2018-11-06T12:43:05.453Z,27.00
2018-11-06T12:45:33.900Z,26.50
2018-11-06T12:48:02.341Z,25.80
2018-11-06T12:50:30.821Z,25.20
2018-11-06T12:52:59.312Z,24.60
2018-11-06T12:55:27.800Z,24.10
2018-11-06T12:57:56.220Z,23.50
2018-11-06T13:00:24.678Z,22.90
2018-11-06T13:02:57.676Z,22.20
2018-11-06T13:05:26.102Z,21.70
2018-11-06T13:07:54.570Z,21.50
2018-11-06T13:10:23.212Z,21.20
2018-11-06T13:12:51.664Z,20.90
2018-11-06T13:15:20.073Z,20.60
2018-11-06T13:17:48.547Z,20.60
2018-11-06T13:20:17.549Z,20.60
2018-11-06T13:22:46.131Z,20.60
2018-11-06T13:25:14.590Z,20.70
2018-11-06T13:27:43.318Z,20.60
2018-11-06T13:30:16.420Z,20.40
2018-11-06T13:32:48.128Z,20.30
2018-11-06T13:35:16.611Z,20.20
2018-11-06T13:37:45.081Z,20.20
2018-11-06T13:40:15.358Z,20.10
2018-11-06T13:42:44.024Z,20.10
2018-11-06T13:45:17.216Z,20.10
2018-11-06T13:47:45.620Z,20.00
2018-11-06T13:50:14.056Z,20.00
2018-11-06T13:52:42.493Z,20.00
2018-11-06T13:55:13.004Z,19.90
2018-11-06T13:57:41.821Z,19.90
2018-11-06T14:00:13.693Z,19.80
2018-11-06T14:02:42.141Z,19.60
2018-11-06T14:05:10.717Z,19.50
2018-11-06T14:07:39.233Z,19.30
2018-11-06T14:10:08.091Z,19.20
2018-11-06T14:12:36.556Z,19.10
2018-11-06T14:15:05.029Z,19.00
2018-11-06T14:17:33.482Z,18.90
2018-11-06T14:20:01.999Z,18.80
2018-11-06T14:22:30.861Z,18.70
2018-11-06T14:24:59.316Z,18.70
2018-11-06T14:27:27.794Z,18.60
2018-11-06T14:29:56.264Z,18.40
2018-11-06T14:32:24.701Z,18.30
2018-11-06T14:34:53.099Z,18.30
2018-11-06T14:37:21.563Z,18.10
2018-11-06T14:39:49.997Z,18.00
2018-11-06T14:42:18.628Z,18.00
2018-11-06T14:44:47.020Z,17.90
2018-11-06T14:47:15.457Z,17.80
2018-11-06T14:49:44.105Z,17.70
2018-11-06T14:52:12.566Z,17.60
2018-11-06T14:54:43.834Z,17.60
2018-11-06T14:57:12.388Z,17.50
2018-11-06T14:59:40.976Z,17.50
2018-11-06T15:02:09.460Z,17.40
2018-11-06T15:04:37.964Z,17.40
2018-11-06T15:07:11.040Z,17.30
2018-11-06T15:09:39.533Z,17.20
2018-11-06T15:12:08.136Z,17.10
2018-11-06T15:14:36.588Z,17.10
2018-11-06T15:17:05.373Z,17.00
2018-11-06T15:19:40.161Z,16.90
2018-11-06T15:22:08.648Z,16.80
2018-11-06T15:24:37.312Z,16.60
2018-11-06T15:27:05.769Z,16.60
2018-11-06T15:29:34.222Z,16.40
2018-11-06T15:32:02.726Z,16.30
2018-11-06T15:34:31.299Z,16.20
2018-11-06T15:36:59.866Z,16.10
2018-11-06T15:39:29.019Z,16.00
2018-11-06T15:41:57.717Z,15.80
2018-11-06T15:44:28.616Z,15.70
2018-11-06T15:46:57.028Z,15.60
2018-11-06T15:49:25.490Z,15.40
2018-11-06T15:51:53.910Z,15.30
2018-11-06T15:54:22.384Z,15.10
2018-11-06T15:56:51.960Z,15.10
2018-11-06T15:59:20.434Z,15.00
2018-11-06T16:01:48.961Z,14.90
2018-11-06T16:04:17.368Z,14.90
2018-11-06T16:06:45.882Z,14.80
2018-11-06T16:09:14.301Z,14.80
2018-11-06T16:11:42.775Z,14.80
2018-11-06T16:14:11.295Z,14.70
2018-11-06T16:16:39.722Z,14.60
2018-11-06T16:19:11.198Z,14.40
2018-11-06T16:21:39.646Z,14.40
2018-11-06T16:24:08.259Z,14.30
2018-11-06T16:26:36.690Z,14.20
2018-11-06T16:29:05.583Z,14.10
2018-11-06T16:31:34.015Z,13.90
2018-11-06T16:34:02.494Z,13.80
2018-11-06T16:36:30.972Z,13.70
2018-11-06T16:38:59.502Z,13.60
2018-11-06T16:41:28.018Z,13.50
2018-11-06T16:43:56.479Z,13.50
2018-11-06T16:46:24.904Z,13.40
2018-11-06T16:48:53.349Z,13.20
2018-11-06T16:51:21.867Z,13.00
2018-11-06T16:53:50.394Z,12.90
2018-11-06T16:56:18.828Z,12.80
2018-11-06T16:58:47.263Z,12.70
2018-11-06T17:01:16.014Z,12.60
2018-11-06T17:03:44.488Z,12.50
2018-11-06T17:06:18.229Z,12.40
2018-11-06T17:08:46.696Z,12.40
2018-11-06T17:11:15.184Z,12.40
2018-11-06T17:13:43.631Z,12.30
2018-11-06T17:16:12.145Z,12.20
2018-11-06T17:18:41.133Z,12.20
2018-11-06T17:21:09.766Z,12.10
2018-11-06T17:23:38.357Z,12.00
2018-11-06T17:26:06.865Z,12.00
2018-11-06T17:28:35.407Z,12.00
2018-11-06T17:31:03.978Z,11.90
2018-11-06T17:33:32.492Z,11.80
2018-11-06T17:36:01.111Z,11.80
2018-11-06T17:38:30.211Z,11.70
2018-11-06T17:40:58.735Z,11.60
2018-11-06T17:43:27.475Z,11.50
2018-11-06T17:45:56.154Z,11.40
2018-11-06T17:48:24.715Z,11.40
2018-11-06T17:50:53.737Z,11.40
2018-11-06T17:53:22.542Z,11.40
2018-11-06T17:55:51.376Z,11.30
2018-11-06T17:58:20.016Z,11.10
2018-11-06T18:00:48.628Z,11.00
2018-11-06T18:03:17.712Z,10.90
2018-11-06T18:05:46.379Z,10.80
2018-11-06T18:08:15.252Z,10.70
2018-11-06T18:13:15.822Z,10.80
2018-11-06T18:15:44.975Z,10.80
2018-11-06T18:18:13.985Z,10.80
2018-11-06T18:20:43.398Z,10.80
2018-11-06T18:23:13.696Z,10.80
2018-11-06T18:25:43.085Z,10.80
2018-11-06T18:28:12.175Z,10.80
2018-11-06T18:33:08.564Z,10.80
2018-11-06T18:35:37.433Z,10.70
2018-11-06T18:38:06.411Z,10.70
2018-11-06T18:40:35.978Z,10.80
2018-11-06T18:43:04.921Z,10.70
2018-11-06T18:45:34.464Z,10.60
2018-11-06T18:48:03.766Z,10.50
2018-11-06T18:50:33.323Z,10.50
2018-11-06T18:53:02.217Z,10.50
2018-11-06T18:55:31.255Z,10.40
2018-11-06T18:58:01.220Z,10.40
2018-11-06T19:00:31.489Z,10.40
2018-11-06T19:03:01.230Z,10.30
2018-11-06T19:07:58.087Z,10.30
2018-11-06T19:10:27.418Z,10.10
2018-11-06T19:12:56.680Z,10.10
2018-11-06T19:15:26.271Z,10.10
2018-11-06T19:17:56.737Z,10.10
2018-11-06T19:20:29.331Z,10.20
2018-11-06T19:22:59.833Z,10.20
2018-11-06T19:25:29.864Z,10.20
2018-11-06T19:27:59.320Z,10.10
2018-11-06T19:30:29.708Z,10.10
2018-11-06T19:32:59.106Z,9.90
2018-11-06T19:35:28.639Z,9.80
2018-11-06T19:37:59.390Z,9.80
2018-11-06T19:40:28.864Z,9.80
2018-11-06T19:42:59.187Z,9.80
2018-11-06T19:45:28.690Z,9.80
2018-11-06T19:47:58.144Z,9.70
2018-11-06T19:50:29.752Z,9.70
2018-11-06T19:53:00.001Z,9.60
2018-11-06T19:55:30.883Z,9.60
2018-11-06T19:58:01.398Z,9.70
2018-11-06T20:00:31.148Z,9.60
2018-11-06T20:03:01.717Z,9.60
2018-11-06T20:05:32.617Z,9.60
2018-11-06T20:08:02.795Z,9.60
2018-11-06T20:10:34.504Z,9.60
2018-11-06T20:13:04.497Z,9.60
2018-11-06T20:15:34.252Z,9.50
2018-11-06T20:18:05.340Z,9.30
2018-11-06T20:20:36.737Z,9.10
2018-11-06T20:23:06.931Z,9.00
2018-11-06T20:25:38.179Z,9.10
2018-11-06T20:28:09.266Z,9.00
2018-11-06T20:30:42.000Z,8.90
2018-11-06T20:33:11.567Z,8.80
2018-11-06T20:35:42.243Z,8.80
2018-11-06T20:38:15.045Z,8.90
2018-11-06T20:43:20.317Z,8.90
2018-11-06T20:45:50.233Z,8.70
2018-11-06T20:48:21.907Z,8.70
2018-11-06T20:50:54.288Z,8.70
2018-11-06T20:53:27.013Z,8.70
2018-11-06T20:55:57.216Z,8.60
2018-11-06T20:58:28.143Z,8.60
2018-11-06T21:00:58.338Z,8.60
2018-11-06T21:03:27.980Z,8.50
2018-11-06T21:05:58.212Z,8.40
2018-11-06T21:08:28.033Z,8.40
2018-11-06T21:10:58.087Z,8.40
2018-11-06T21:16:02.254Z,8.30
2018-11-06T21:18:32.150Z,8.30
2018-11-06T21:21:02.390Z,8.20
2018-11-06T21:23:32.513Z,8.20
2018-11-06T21:26:02.508Z,8.20
2018-11-06T21:28:32.168Z,8.10
2018-11-06T21:31:02.113Z,8.20
2018-11-06T21:33:32.042Z,8.30
2018-11-06T21:36:01.402Z,8.30
2018-11-06T21:38:30.811Z,8.20
2018-11-06T21:41:00.711Z,8.30
2018-11-06T21:43:30.601Z,8.20
2018-11-06T21:46:00.139Z,8.20
2018-11-06T21:48:30.669Z,8.00
2018-11-06T21:50:59.685Z,8.00
2018-11-06T21:53:29.249Z,8.00
2018-11-06T21:56:00.281Z,8.10
2018-11-06T21:58:29.898Z,8.00
2018-11-06T22:00:58.942Z,8.10
2018-11-06T22:03:28.107Z,8.10
2018-11-06T22:05:57.219Z,8.20
2018-11-06T22:08:26.477Z,8.10
2018-11-06T22:10:55.624Z,8.20
2018-11-06T22:13:24.406Z,8.20
2018-11-06T22:15:53.451Z,8.20
2018-11-06T22:18:22.057Z,8.10
2018-11-06T22:20:50.530Z,8.00
2018-11-06T22:23:19.013Z,7.90
2018-11-06T22:25:47.568Z,7.70
2018-11-06T22:28:16.124Z,7.70
2018-11-06T22:30:45.224Z,7.70
2018-11-06T22:33:13.727Z,8.00
2018-11-06T22:35:42.286Z,8.00
2018-11-06T22:38:10.757Z,8.10
2018-11-06T22:40:40.141Z,8.10
2018-11-06T22:43:08.554Z,8.10
2018-11-06T22:45:37.048Z,8.20
2018-11-06T22:48:05.624Z,8.10
2018-11-06T22:50:36.852Z,8.20
2018-11-06T22:53:05.676Z,8.00
2018-11-06T22:55:34.080Z,7.90
2018-11-06T22:58:02.600Z,7.80
2018-11-06T23:00:37.561Z,7.70
2018-11-06T23:03:11.769Z,7.60
2018-11-06T23:05:40.407Z,7.50
2018-11-06T23:08:14.404Z,7.60
2018-11-06T23:10:42.925Z,7.50
2018-11-06T23:13:11.530Z,7.40
2018-11-06T23:15:39.976Z,7.40
2018-11-06T23:18:12.208Z,7.30
2018-11-06T23:20:40.698Z,7.30
2018-11-06T23:23:15.124Z,7.30
2018-11-06T23:25:43.643Z,7.30
2018-11-06T23:28:12.247Z,7.20
2018-11-06T23:30:41.292Z,7.10
2018-11-06T23:33:09.699Z,7.20
2018-11-06T23:35:38.264Z,7.20
2018-11-06T23:38:06.726Z,7.10
2018-11-06T23:40:35.173Z,7.10
2018-11-06T23:43:03.658Z,7.10
2018-11-06T23:45:32.070Z,7.20
2018-11-06T23:48:00.494Z,7.10
2018-11-06T23:50:28.934Z,7.20
2018-11-06T23:52:57.348Z,7.10
2018-11-06T23:55:25.835Z,7.10
2018-11-06T23:57:54.357Z,7.20
